Time;durP1;ratioP1;P1;durP2;ratioP2;P2;SDS_P1;SDS_P2;PMS_P1;PMS_P2;Temp;Humidity;BMP_temperature;BMP_pressure;BME280_temperature;BME280_humidity;BME280_pressure;Samples;Min_cycle;Max_cycle;Signal;HPM_P1;HPM_P2
2020/12/01 00:02:23;;;;;;;;;;;;;;;;;;5030777;28;20025;-83
2020/12/01 00:04:49;;;;;;;63.95;29.70;;;;;;;;;;5029499;28;19915;-84
2020/12/01 00:07:15;;;;;;;;;;;;;;;;;;5030589;28;20025;-83
2020/12/01 00:09:41;;;;;;;72.05;31.15;;;;;;;;;;5030715;28;20196;-78
2020/12/01 00:12:07;;;;;;;;;;;;;;;;;;5031109;28;20080;-79
2020/12/01 00:14:33;;;;;;;69.95;30.85;;;;;;;;;;5029184;28;20416;-79
2020/12/01 00:16:59;;;;;;;;;;;;;;;;;;5031355;28;20520;-84
2020/12/01 00:19:25;;;;;;;54.42;25.05;;;;;;;;;;5030917;28;19928;-79
2020/12/01 00:21:51;;;;;;;66.88;33.65;;;;;;;;;;5038983;28;20029;-81
2020/12/01 00:24:17;;;;;;;;;;;;;;;;;;5041480;28;20123;-82
2020/12/01 00:26:43;;;;;;;73.72;31.25;;;;;;;;;;5038051;28;20355;-82
2020/12/01 00:29:09;;;;;;;66.93;34.10;;;;;;;;;;5039864;28;20028;-81
2020/12/01 00:31:37;;;;;;;65.90;29.92;;;;;;;;;;5039244;28;20405;-81
2020/12/01 00:34:03;;;;;;;56.90;28.75;;;;;;;;;;5040615;28;20485;-81
2020/12/01 00:36:29;;;;;;;;;;;;;;;;;;5038072;28;20117;-82
2020/12/01 00:38:55;;;;;;;68.90;34.00;;;;;;;;;;5032702;28;20003;-82
2020/12/01 00:41:21;;;;;;;;;;;;;;;;;;5029127;28;20029;-82
2020/12/01 00:43:47;;;;;;;72.22;33.38;;;;;;;;;;5029469;28;19916;-82
2020/12/01 00:46:13;;;;;;;;;;;;;;;;;;5029299;28;20025;-83
2020/12/01 00:48:39;;;;;;;79.40;37.00;;;;;;;;;;5028022;28;20381;-83
2020/12/01 00:51:05;;;;;;;;;;;;;;;;;;5029675;28;20394;-86
2020/12/01 00:53:31;;;;;;;83.03;38.05;;;;;;;;;;5029373;28;19909;-79
2020/12/01 00:55:57;;;;;;;89.43;41.33;;;;;;;;;;5029423;28;20088;-78
2020/12/01 00:58:23;;;;;;;;;;;;;;;;;;5029421;28;20033;-80
2020/12/01 01:00:49;;;;;;;91.32;40.50;;;;;;;;;;5028227;28;20369;-84
2020/12/01 01:03:15;;;;;;;;;;;;;;;;;;5029962;28;20083;-81
2020/12/01 01:05:41;;;;;;;85.60;38.88;;;;;;;;;;5028444;28;19913;-79
2020/12/01 01:08:07;;;;;;;84.70;36.20;;;;;;;;;;5028162;28;20508;-78
2020/12/01 01:10:34;;;;;;;97.75;42.65;;;;;;;;;;5028949;28;20029;-83
2020/12/01 01:13:00;;;;;;;118.35;50.38;;;;;;;;;;5028104;28;20053;-80
2020/12/01 01:15:29;;;;;;;100.38;43.58;;;;;;;;;;5029777;28;20026;-78
2020/12/01 01:17:56;;;;;;;90.13;42.53;;;;;;;;;;5029371;28;20124;-78
2020/12/01 01:20:22;;;;;;;97.53;41.42;;;;;;;;;;5029024;28;20025;-79
2020/12/01 01:22:48;;;;;;;98.85;44.38;;;;;;;;;;5028162;28;20033;-78
2020/12/01 01:25:14;;;;;;;;;;;;;;;;;;5029890;28;20033;-78
2020/12/01 01:27:40;;;;;;;92.45;42.05;;;;;;;;;;5028960;28;19955;-76
2020/12/01 01:30:06;;;;;;;106.93;47.10;;;;;;;;;;5027645;28;20064;-82
2020/12/01 01:32:32;;;;;;;96.50;44.08;;;;;;;;;;5029133;28;20815;-82
2020/12/01 01:34:58;;;;;;;100.10;44.78;;;;;;;;;;5027073;28;20482;-80
2020/12/01 01:37:24;;;;;;;;;;;;;;;;;;5028399;28;20484;-80
2020/12/01 01:39:50;;;;;;;110.93;47.10;;;;;;;;;;5028846;28;20028;-81
2020/12/01 01:42:16;;;;;;;;;;;;;;;;;;5029720;28;20052;-80
2020/12/01 01:44:42;;;;;;;98.82;42.00;;;;;;;;;;5027322;28;20432;-80
2020/12/01 01:47:20;;;;;;;104.60;42.03;;;;;;;;;;5027698;28;20022;-80
2020/12/01 01:49:48;;;;;;;94.95;43.38;;;;;;;;;;5028574;28;20108;-79
2020/12/01 01:52:24;;;;;;;103.32;46.22;;;;;;;;;;5029093;28;20526;-81
2020/12/01 01:54:54;;;;;;;113.18;48.72;;;;;;;;;;5027185;28;20029;-82
2020/12/01 01:57:20;;;;;;;114.05;47.03;;;;;;;;;;5026764;28;20159;-81
2020/12/01 01:59:48;;;;;;;121.65;50.55;;;;;;;;;;5027360;28;20060;-79
2020/12/01 02:02:14;;;;;;;132.65;53.88;;;;;;;;;;5027480;28;20577;-80
2020/12/01 02:04:40;;;;;;;;;;;;;;;;;;5027446;28;20064;-80
2020/12/01 02:07:06;;;;;;;124.97;48.20;;;;;;;;;;5027276;28;19956;-81
2020/12/01 02:09:34;;;;;;;128.30;49.35;;;;;;;;;;5027039;28;20120;-77
2020/12/01 02:12:01;;;;;;;108.07;43.75;;;;;;;;;;5026902;28;20107;-82
2020/12/01 02:14:35;;;;;;;89.75;38.35;;;;;;;;;;5028176;28;20425;-85
2020/12/01 02:17:20;;;;;;;111.90;47.05;;;;;;;;;;5028636;28;20088;-83
2020/12/01 02:19:47;;;;;;;124.72;50.05;;;;;;;;;;5026769;28;20039;-79
2020/12/01 02:22:14;;;;;;;125.82;49.67;;;;;;;;;;5026753;28;20140;-80
2020/12/01 02:24:40;;;;;;;127.38;50.90;;;;;;;;;;5026852;28;20128;-79
2020/12/01 02:27:06;;;;;;;118.68;47.70;;;;;;;;;;5027249;28;20108;-80
2020/12/01 02:29:32;;;;;;;;;;;;;;;;;;5026951;28;20125;-79
2020/12/01 02:31:58;;;;;;;129.10;49.70;;;;;;;;;;5026902;28;20402;-81
2020/12/01 02:34:31;;;;;;;111.50;44.80;;;;;;;;;;5027666;28;20520;-81
2020/12/01 02:36:57;;;;;;;99.95;42.00;;;;;;;;;;5026517;28;20120;-81
2020/12/01 02:39:23;;;;;;;;;;;;;;;;;;5027484;28;20025;-83
2020/12/01 02:41:58;;;;;;;84.18;36.03;;;;;;;;;;5026607;28;19939;-82
2020/12/01 02:44:25;;;;;;;104.53;42.95;;;;;;;;;;5026358;28;20029;-80
2020/12/01 02:46:52;;;;;;;91.70;39.58;;;;;;;;;;5026824;28;20033;-80
2020/12/01 02:49:18;;;;;;;110.13;48.35;;;;;;;;;;5027512;28;20028;-78
2020/12/01 02:51:44;;;;;;;89.72;39.70;;;;;;;;;;5026899;28;20037;-82
2020/12/01 02:54:10;;;;;;;88.82;41.08;;;;;;;;;;5026219;28;20572;-82
2020/12/01 02:56:36;;;;;;;;;;;;;;;;;;5027181;28;20057;-82
2020/12/01 02:59:02;;;;;;;97.95;42.25;;;;;;;;;;5026337;28;19955;-82
2020/12/01 03:01:28;;;;;;;;;;;;;;;;;;5027023;28;20128;-80
2020/12/01 03:03:54;;;;;;;86.35;38.55;;;;;;;;;;5027230;28;20004;-81
2020/12/01 03:06:20;;;;;;;;;;;;;;;;;;5026668;28;20034;-80
2020/12/01 03:08:46;;;;;;;83.07;36.63;;;;;;;;;;5026462;28;19912;-81
2020/12/01 03:11:12;;;;;;;96.10;40.05;;;;;;;;;;5025584;28;20434;-80
2020/12/01 03:13:38;;;;;;;82.88;39.08;;;;;;;;;;5027560;28;20448;-81
2020/12/01 03:16:09;;;;;;;86.57;40.90;;;;;;;;;;5026028;28;20052;-80
2020/12/01 03:18:39;;;;;;;75.53;35.70;;;;;;;;;;5027138;28;20033;-82
2020/12/01 03:21:05;;;;;;;88.78;40.92;;;;;;;;;;5027672;28;20505;-80
2020/12/01 03:23:31;;;;;;;70.03;32.60;;;;;;;;;;5027314;28;20064;-81
2020/12/01 03:25:58;;;;;;;88.90;40.00;;;;;;;;;;5027555;28;20060;-81
2020/12/01 03:28:24;;;;;;;80.95;36.80;;;;;;;;;;5025846;28;20116;-78
2020/12/01 03:30:50;;;;;;;;;;;;;;;;;;5026802;28;20064;-78
2020/12/01 03:33:16;;;;;;;81.13;35.78;;;;;;;;;;5026961;28;19960;-79
2020/12/01 03:35:42;;;;;;;;;;;;;;;;;;5026779;28;20030;-80
2020/12/01 03:38:08;;;;;;;77.25;31.92;;;;;;;;;;5027527;28;19916;-79
2020/12/01 03:40:34;;;;;;;67.57;32.50;;;;;;;;;;5027074;28;20029;-79
2020/12/01 03:43:00;;;;;;;;;;;;;;;;;;5026001;28;20391;-78
2020/12/01 03:45:26;;;;;;;92.72;41.83;;;;;;;;;;5027114;28;19916;-78
2020/12/01 03:47:52;;;;;;;;;;;;;;;;;;5027272;28;20493;-78
2020/12/01 03:50:19;;;;;;;68.05;33.33;;;;;;;;;;5027225;28;19912;-79
2020/12/01 03:52:45;;;;;;;73.90;34.03;;;;;;;;;;5027528;28;20049;-77
2020/12/01 03:55:10;;;;;;;;;;;;;;;;;;5026594;28;20021;-79
2020/12/01 03:57:43;;;;;;;88.57;40.95;;;;;;;;;;5026708;28;19924;-78
2020/12/01 04:00:10;;;;;;;73.88;35.33;;;;;;;;;;5025935;28;20441;-79
2020/12/01 04:02:36;;;;;;;86.22;38.97;;;;;;;;;;5025060;28;20034;-79
2020/12/01 04:05:02;;;;;;;89.68;40.75;;;;;;;;;;5025904;28;20152;-78
2020/12/01 04:07:28;;;;;;;80.40;37.63;;;;;;;;;;5026137;28;20068;-80
2020/12/01 04:09:54;;;;;;;;;;;;;;;;;;5025983;28;20038;-81
2020/12/01 04:12:20;;;;;;;96.53;40.30;;;;;;;;;;5025654;28;19917;-80
2020/12/01 04:14:46;;;;;;;88.90;39.13;;;;;;;;;;5025392;28;20061;-80
2020/12/01 04:17:12;;;;;;;;;;;;;;;;;;5025488;28;20056;-81
2020/12/01 04:19:38;;;;;;;76.88;34.65;;;;;;;;;;5028607;28;19998;-78
2020/12/01 04:22:04;;;;;;;;;;;;;;;;;;5029539;28;20128;-80
2020/12/01 04:24:30;;;;;;;74.95;31.45;;;;;;;;;;5029227;28;20450;-80
2020/12/01 04:26:56;;;;;;;;;;;;;;;;;;5031085;28;20108;-80
2020/12/01 04:29:22;;;;;;;97.82;40.25;;;;;;;;;;5028811;28;19992;-80
2020/12/01 04:31:48;;;;;;;;;;;;;;;;;;5030404;28;20084;-80
2020/12/01 04:34:14;;;;;;;86.70;35.78;;;;;;;;;;5029002;28;19968;-80
2020/12/01 04:36:39;;;;;;;;;;;;;;;;;;5030319;28;20544;-79
2020/12/01 04:39:05;;;;;;;79.50;36.17;;;;;;;;;;5028948;28;19905;-78
2020/12/01 04:41:31;;;;;;;;;;;;;;;;;;5030809;28;20029;-83
2020/12/01 04:44:00;;;;;;;81.25;35.33;;;;;;;;;;5028947;28;19905;-83
2020/12/01 04:46:28;;;;;;;68.70;31.10;;;;;;;;;;5028148;28;20031;-84
2020/12/01 04:49:02;;;;;;;80.47;36.83;;;;;;;;;;5030142;28;20028;-83
2020/12/01 04:51:47;;;;;;;85.35;38.33;;;;;;;;;;5028370;28;20642;-83
2020/12/01 04:54:22;;;;;;;77.93;36.67;;;;;;;;;;5029682;28;20528;-85
2020/12/01 04:57:17;;;;;;;77.35;35.60;;;;;;;;;;5030339;28;20497;-83
2020/12/01 04:59:46;;;;;;;78.55;36.10;;;;;;;;;;5011064;28;20041;-84
2020/12/01 05:02:30;;;;;;;72.05;34.40;;;;;;;;;;5028339;28;20025;-81
2020/12/01 05:05:08;;;;;;;90.43;39.38;;;;;;;;;;5030029;28;20026;-84
2020/12/01 05:07:56;;;;;;;87.05;39.15;;;;;;;;;;5028327;28;20037;-82
2020/12/01 05:10:22;;;;;;;80.47;37.42;;;;;;;;;;5029759;28;20505;-82
2020/12/01 05:12:59;;;;;;;72.90;34.03;;;;;;;;;;5029433;28;20709;-84
2020/12/01 05:15:25;;;;;;;;;;;;;;;;;;5030386;28;20599;-83
2020/12/01 05:18:08;;;;;;;88.28;40.17;;;;;;;;;;5029689;28;19993;-84
2020/12/01 05:20:42;;;;;;;87.03;37.70;;;;;;;;;;5028304;28;20035;-84
2020/12/01 05:23:08;;;;;;;74.20;33.92;;;;;;;;;;5027814;28;20087;-84
2020/12/01 05:25:34;;;;;;;73.25;34.53;;;;;;;;;;5029528;28;20037;-84
2020/12/01 05:28:00;;;;;;;;;;;;;;;;;;5029754;28;20021;-84
2020/12/01 05:30:26;;;;;;;80.28;32.67;;;;;;;;;;5029386;28;19916;-84
2020/12/01 05:32:52;;;;;;;;;;;;;;;;;;5028318;28;20174;-84
2020/12/01 05:35:24;;;;;;;76.28;34.58;;;;;;;;;;5027795;28;20385;-81
2020/12/01 05:37:54;;;;;;;86.10;38.28;;;;;;;;;;5027865;28;20044;-83
2020/12/01 05:40:21;;;;;;;76.45;35.70;;;;;;;;;;5027480;28;20557;-82
2020/12/01 05:42:47;;;;;;;88.15;38.80;;;;;;;;;;5027724;28;20044;-81
2020/12/01 05:45:23;;;;;;;80.75;37.72;;;;;;;;;;5027790;28;20025;-83
2020/12/01 05:47:52;;;;;;;80.78;33.83;;;;;;;;;;5026947;28;20379;-82
2020/12/01 05:50:23;;;;;;;78.72;36.58;;;;;;;;;;5027813;28;20033;-83
2020/12/01 05:52:49;;;;;;;82.50;35.92;;;;;;;;;;5028602;28;20057;-80
2020/12/01 05:55:20;;;;;;;70.60;33.20;;;;;;;;;;5027536;28;20569;-81
2020/12/01 05:57:58;;;;;;;68.63;32.33;;;;;;;;;;5027130;28;20098;-83
2020/12/01 06:00:28;;;;;;;77.40;37.25;;;;;;;;;;5028433;28;20127;-82
2020/12/01 06:03:01;;;;;;;68.70;31.80;;;;;;;;;;5028236;28;20035;-83
2020/12/01 06:05:27;;;;;;;70.50;34.47;;;;;;;;;;5027511;28;20061;-83
2020/12/01 06:07:53;;;;;;;;;;;;;;;;;;5027732;28;20055;-83
2020/12/01 06:10:37;;;;;;;76.72;35.53;;;;;;;;;;5028243;28;20394;-83
2020/12/01 06:13:25;;;;;;;67.43;32.85;;;;;;;;;;5026836;28;20052;-79
2020/12/01 06:16:02;;;;;;;76.25;34.25;;;;;;;;;;5027560;28;20033;-81
2020/12/01 06:18:35;;;;;;;70.45;33.88;;;;;;;;;;5028497;28;20040;-83
2020/12/01 06:21:04;;;;;;;72.63;35.13;;;;;;;;;;5028389;28;20495;-84
2020/12/01 06:23:29;;;;;;;78.25;34.55;;;;;;;;;;5028443;28;20041;-83
2020/12/01 06:25:55;;;;;;;;;;;;;;;;;;5027385;28;20032;-84
2020/12/01 06:28:37;;;;;;;73.32;33.38;;;;;;;;;;5026832;28;20381;-85
2020/12/01 06:31:09;;;;;;;75.38;36.60;;;;;;;;;;5028269;28;20030;-83
2020/12/01 06:33:55;;;;;;;65.97;32.92;;;;;;;;;;5026863;28;20414;-84
2020/12/01 06:36:37;;;;;;;87.60;41.70;;;;;;;;;;5028349;28;20029;-83
2020/12/01 06:39:22;;;;;;;104.07;48.25;;;;;;;;;;5028229;28;20075;-82
2020/12/01 06:41:54;;;;;;;131.10;61.00;;;;;;;;;;5026697;28;20030;-82
2020/12/01 06:44:21;;;;;;;94.25;44.58;;;;;;;;;;5027619;28;20057;-84
2020/12/01 06:46:49;;;;;;;83.63;41.67;;;;;;;;;;5026527;28;20589;-81
2020/12/01 06:49:18;;;;;;;73.40;35.80;;;;;;;;;;5026573;28;20029;-83
2020/12/01 06:51:52;;;;;;;75.05;35.90;;;;;;;;;;5027458;28;20511;-79
2020/12/01 06:54:18;;;;;;;75.63;36.95;;;;;;;;;;5026631;28;20398;-79
2020/12/01 06:57:14;;;;;;;71.10;37.22;;;;;;;;;;5026123;28;20044;-79
2020/12/01 06:59:46;;;;;;;76.97;39.20;;;;;;;;;;5021577;28;20363;-79
2020/12/01 07:02:24;;;;;;;79.22;39.22;;;;;;;;;;5026062;28;20430;-79
2020/12/01 07:04:50;;;;;;;74.15;37.50;;;;;;;;;;5026135;28;20112;-79
2020/12/01 07:07:37;;;;;;;88.68;38.80;;;;;;;;;;5027535;28;20485;-79
2020/12/01 07:10:19;;;;;;;82.90;42.22;;;;;;;;;;5027718;28;20482;-80
2020/12/01 07:12:56;;;;;;;86.78;41.42;;;;;;;;;;5031248;28;20048;-79
2020/12/01 07:15:30;;;;;;;91.72;44.55;;;;;;;;;;5044669;28;20029;-80
2020/12/01 07:18:05;;;;;;;85.03;39.03;;;;;;;;;;5037814;28;20421;-80
2020/12/01 07:20:34;;;;;;;80.82;38.50;;;;;;;;;;5044501;28;20056;-79
2020/12/01 07:23:06;;;;;;;71.93;34.97;;;;;;;;;;5047430;28;20049;-80
2020/12/01 07:25:50;;;;;;;71.22;36.88;;;;;;;;;;5046148;28;20078;-87
2020/12/01 07:28:16;;;;;;;77.78;39.20;;;;;;;;;;5045839;28;20033;-82
2020/12/01 07:30:42;;;;;;;;;;;;;;;;;;5047361;28;20039;-80
2020/12/01 07:33:14;;;;;;;83.55;39.78;;;;;;;;;;5045465;28;19917;-81
2020/12/01 07:35:40;;;;;;;79.85;39.22;;;;;;;;;;5047476;28;20025;-81
2020/12/01 07:38:05;;;;;;;;;;;;;;;;;;5047316;28;20031;-80
2020/12/01 07:40:43;;;;;;;89.90;43.17;;;;;;;;;;5045856;28;20401;-80
2020/12/01 07:43:11;;;;;;;86.40;44.03;;;;;;;;;;5047127;28;20025;-80
2020/12/01 07:45:37;;;;;;;93.88;47.70;;;;;;;;;;5046840;28;20033;-80
2020/12/01 07:48:03;;;;;;;;;;;;;;;;;;5047476;28;20032;-80
2020/12/01 07:50:30;;;;;;;73.93;37.63;;;;;;;;;;5046850;28;19909;-80
2020/12/01 07:52:58;;;;;;;70.57;36.22;;;;;;;;;;5045809;28;20041;-83
2020/12/01 08:05:12;;;;;;;59.00;30.05;;;;;;;;;;5064796;28;20387;-80
2020/12/01 08:07:38;;;;;;;62.70;31.40;;;;;;;;;;5064919;28;20032;-81
2020/12/01 08:10:09;;;;;;;68.43;35.35;;;;;;;;;;5063566;28;20090;-81
2020/12/01 08:12:39;;;;;;;68.20;33.63;;;;;;;;;;5062024;28;20029;-80
2020/12/01 08:15:06;;;;;;;63.10;33.78;;;;;;;;;;5063260;28;20032;-80
2020/12/01 08:17:34;;;;;;;59.83;31.65;;;;;;;;;;5063519;28;20032;-82
2020/12/01 08:20:00;;;;;;;63.08;33.38;;;;;;;;;;5065297;28;20044;-81
2020/12/01 08:22:32;;;;;;;59.83;31.70;;;;;;;;;;5055574;28;20029;-82
2020/12/01 08:25:00;;;;;;;69.53;34.17;;;;;;;;;;5044981;28;20099;-81
2020/12/01 08:27:30;;;;;;;64.25;32.97;;;;;;;;;;5062295;28;20378;-81
2020/12/01 08:29:59;;;;;;;64.53;34.13;;;;;;;;;;5063698;28;20485;-82
2020/12/01 08:44:29;;;;;;;8.48;4.57;;;;;;;;;;5064953;28;20461;-82
2020/12/01 08:55:53;;;;;;;8.47;3.77;;;23.20;44.40;;;;;;5115482;27;929230;-69
2020/12/01 09:23:37;;;;;;;48.20;31.10;;;6.90;54.40;;;;;;5050209;28;20033;-75
2020/12/01 09:26:21;;;;;;;54.53;32.90;;;4.70;62.50;;;;;;5066868;28;20025;-77
2020/12/01 09:28:51;;;;;;;55.75;33.75;;;3.60;68.70;;;;;;5066560;28;20028;-76
2020/12/01 09:31:18;;;;;;;61.30;34.72;;;2.90;71.90;;;;;;5066437;28;20350;-76
2020/12/01 09:33:44;;;;;;;60.65;33.20;;;2.60;74.80;;;;;;5066597;28;20029;-76
2020/12/01 09:36:19;;;;;;;;;;;2.40;76.00;;;;;;5066686;28;20082;-75
2020/12/01 09:38:45;;;;;;;68.63;37.72;;;2.20;77.50;;;;;;5066631;28;19920;-76
2020/12/01 09:41:12;;;;;;;;;;;2.10;78.10;;;;;;5065207;28;20549;-76
2020/12/01 09:43:44;;;;;;;110.00;57.70;;;2.00;78.50;;;;;;5062100;28;19908;-76
2020/12/01 09:46:12;;;;;;;100.70;52.58;;;2.00;79.80;;;;;;5065688;28;20028;-76
2020/12/01 09:48:42;;;;;;;103.22;51.30;;;1.80;81.50;;;;;;5078672;28;20157;-76
2020/12/01 09:51:09;;;;;;;87.53;41.47;;;1.70;82.70;;;;;;5065867;28;20024;-76
2020/12/01 09:56:29;;;;;;;126.43;64.37;;;1.50;84.20;;;;;;5084668;28;20135;-75
2020/12/01 10:36:29;;;;;;;56.83;29.75;;;1.70;79.80;;;;;;5032972;28;20037;-76
2020/12/01 10:38:55;;;;;;;;;;;1.60;79.80;;;;;;5019133;28;20037;-76
2020/12/01 10:41:28;;;;;;;50.60;25.00;;;1.70;78.50;;;;;;5034098;28;20369;-77
2020/12/01 10:43:54;;;;;;;53.53;28.20;;;1.70;78.20;;;;;;5042209;28;20060;-77
2020/12/01 10:46:19;;;;;;;;;;;1.70;77.40;;;;;;5015502;28;20021;-77
2020/12/01 10:48:45;;;;;;;66.70;31.88;;;1.60;77.70;;;;;;5031708;28;19973;-78
2020/12/01 10:51:10;;;;;;;;;;;1.60;77.70;;;;;;5016252;28;20112;-78
2020/12/01 10:53:36;;;;;;;94.88;51.83;;;1.50;78.20;;;;;;5032679;28;19905;-77
2020/12/01 10:56:02;;;;;;;;;;;1.50;77.90;;;;;;5032088;28;20033;-76
2020/12/01 10:58:28;;;;;;;59.25;28.70;;;1.40;78.30;;;;;;5048709;28;19948;-77
2020/12/01 11:00:55;;;;;;;;;;;1.40;79.40;;;;;;5052064;28;20477;-76
2020/12/01 11:03:21;;;;;;;56.72;29.33;;;1.50;79.10;;;;;;5050076;28;20289;-75
2020/12/01 11:05:46;;;;;;;;;;;1.40;79.30;;;;;;5050265;28;20033;-76
2020/12/01 11:08:13;;;;;;;49.97;25.55;;;1.40;79.40;;;;;;5031997;28;20365;-76
2020/12/01 11:10:39;;;;;;;60.08;29.15;;;1.40;79.60;;;;;;5051582;28;20522;-77
2020/12/01 11:13:07;;;;;;;90.80;46.10;;;1.50;80.10;;;;;;5051470;28;20374;-78
2020/12/01 11:15:33;;;;;;;90.80;45.42;;;1.50;79.60;;;;;;5051464;28;20037;-76
2020/12/01 11:17:58;;;;;;;;;;;1.40;78.80;;;;;;5033090;28;20036;-77
2020/12/01 11:20:24;;;;;;;54.55;28.63;;;1.40;79.80;;;;;;5033932;28;20000;-76
2020/12/01 11:22:50;;;;;;;;;;;1.30;79.60;;;;;;5031983;28;20092;-77
2020/12/01 11:25:20;;;;;;;60.42;28.42;;;1.30;80.00;;;;;;5030943;28;19913;-77
2020/12/01 11:27:46;;;;;;;54.25;28.63;;;1.40;80.40;;;;;;5029093;28;20055;-77
2020/12/01 11:30:13;;;;;;;69.65;35.97;;;1.40;80.80;;;;;;5030079;28;20052;-77
2020/12/01 11:32:39;;;;;;;57.83;29.00;;;1.40;81.30;;;;;;5030665;28;20049;-77
2020/12/01 11:35:05;;;;;;;;;;;1.40;80.30;;;;;;5047002;28;20022;-77
2020/12/01 11:37:31;;;;;;;66.15;29.10;;;1.40;79.60;;;;;;5030150;28;20440;-77
2020/12/01 11:39:56;;;;;;;;;;;1.40;80.40;;;;;;5030534;28;20117;-77
2020/12/01 11:42:22;;;;;;;57.47;30.60;;;1.50;80.10;;;;;;5028524;28;20281;-76
2020/12/01 11:44:47;;;;;;;;;;;1.50;80.00;;;;;;5031346;28;20108;-76
2020/12/01 11:47:13;;;;;;;59.03;30.40;;;1.50;80.10;;;;;;5029117;28;19905;-77
2020/12/01 11:49:39;;;;;;;;;;;1.50;80.50;;;;;;5012380;28;20017;-77
2020/12/01 11:52:04;;;;;;;60.08;29.33;;;1.60;80.70;;;;;;5011878;28;20361;-76
2020/12/01 11:54:30;;;;;;;;;;;1.60;82.00;;;;;;5012794;28;20029;-77
2020/12/01 11:56:56;;;;;;;55.33;27.35;;;1.50;83.40;;;;;;5029475;28;20435;-79
2020/12/01 11:59:21;;;;;;;;;;;1.50;83.70;;;;;;5036459;28;20059;-77
2020/12/01 12:01:48;;;;;;;55.50;29.10;;;1.60;84.00;;;;;;5048001;28;19962;-77
2020/12/01 12:04:14;;;;;;;68.72;38.38;;;1.50;84.60;;;;;;5048863;28;20064;-76
2020/12/01 12:06:40;;;;;;;61.70;33.67;;;1.60;84.10;;;;;;5031747;28;20040;-76
2020/12/01 12:09:06;;;;;;;;;;;1.70;84.00;;;;;;5031607;28;20033;-77
2020/12/01 12:11:32;;;;;;;66.82;36.38;;;1.70;83.90;;;;;;5048727;28;19909;-76
2020/12/01 12:13:58;;;;;;;;;;;1.80;83.30;;;;;;5031571;28;20345;-76
2020/12/01 12:16:24;;;;;;;58.20;31.63;;;1.80;83.10;;;;;;5030784;28;19905;-77
2020/12/01 12:18:49;;;;;;;;;;;1.80;82.90;;;;;;5032461;28;20063;-77
2020/12/01 12:21:18;;;;;;;76.30;42.53;;;1.80;82.70;;;;;;5030952;28;19909;-76
2020/12/01 12:23:44;;;;;;;82.78;48.03;;;1.80;82.20;;;;;;5030159;28;20090;-77
2020/12/01 12:26:09;;;;;;;;;;;1.90;81.60;;;;;;5048578;28;20025;-76
2020/12/01 12:28:35;;;;;;;82.97;42.80;;;1.90;81.00;;;;;;5029885;28;19911;-77
2020/12/01 12:31:02;;;;;;;;;;;1.90;80.40;;;;;;5048842;28;20056;-76
2020/12/01 12:33:29;;;;;;;61.83;35.77;;;1.90;79.80;;;;;;5047803;28;19924;-78
2020/12/01 12:35:55;;;;;;;76.13;43.03;;;1.80;78.80;;;;;;5048325;28;20485;-78
2020/12/01 12:38:21;;;;;;;57.15;30.67;;;1.80;79.10;;;;;;5030095;28;20401;-77
2020/12/01 12:40:51;;;;;;;;;;;1.80;78.80;;;;;;5031430;28;20032;-78
2020/12/01 12:43:18;;;;;;;62.03;36.03;;;1.80;79.50;;;;;;5047746;28;19909;-81
2020/12/01 12:45:43;;;;;;;56.05;30.55;;;1.80;78.80;;;;;;5030142;28;20025;-75
2020/12/01 12:48:09;;;;;;;;;;;1.80;78.30;;;;;;5048060;28;20452;-76
2020/12/01 12:50:34;;;;;;;84.82;46.42;;;1.80;78.30;;;;;;5030271;28;19916;-77
2020/12/01 12:53:00;;;;;;;;;;;1.80;77.70;;;;;;5046492;28;20088;-76
2020/12/01 12:55:26;;;;;;;67.88;36.40;;;1.80;78.20;;;;;;5048091;28;20436;-76
2020/12/01 12:57:51;;;;;;;;;;;1.90;78.40;;;;;;5029483;28;20508;-77
2020/12/01 13:00:17;;;;;;;64.32;35.17;;;1.90;79.50;;;;;;5030431;28;20000;-78
2020/12/01 13:02:42;;;;;;;;;;;1.90;79.80;;;;;;5030530;28;20048;-76
2020/12/01 13:05:08;;;;;;;58.40;30.25;;;2.00;79.50;;;;;;5047569;28;20003;-76
2020/12/01 13:07:33;;;;;;;;;;;2.00;79.40;;;;;;5030448;28;20032;-78
2020/12/01 13:09:59;;;;;;;55.05;28.45;;;2.00;79.70;;;;;;5029930;28;20348;-77
2020/12/01 13:12:25;;;;;;;;;;;1.90;78.80;;;;;;5047596;28;20284;-76
2020/12/01 13:14:50;;;;;;;43.33;23.40;;;1.80;78.00;;;;;;5047519;28;19909;-77
2020/12/01 13:17:16;;;;;;;;;;;1.80;77.80;;;;;;5030273;28;20029;-77
2020/12/01 13:19:41;;;;;;;88.45;46.95;;;1.80;77.80;;;;;;5047584;28;19916;-76
2020/12/01 13:22:07;;;;;;;;;;;1.80;77.00;;;;;;5048628;28;20021;-77
2020/12/01 13:24:33;;;;;;;51.40;28.05;;;1.80;76.60;;;;;;5030854;28;19912;-79
2020/12/01 13:26:58;;;;;;;;;;;1.70;76.70;;;;;;5030742;28;20037;-77
2020/12/01 13:29:24;;;;;;;52.60;27.70;;;1.70;77.60;;;;;;5048216;28;19908;-78
2020/12/01 13:31:49;;;;;;;;;;;1.70;77.50;;;;;;5029978;28;20028;-76
2020/12/01 13:34:16;;;;;;;53.22;27.77;;;1.70;77.90;;;;;;5029989;28;19911;-76
2020/12/01 13:36:42;;;;;;;58.55;29.45;;;1.70;78.40;;;;;;5029746;28;20120;-77
2020/12/01 13:39:10;;;;;;;55.40;27.60;;;1.60;79.30;;;;;;5029756;28;20056;-77
2020/12/01 13:41:36;;;;;;;62.15;35.55;;;1.60;79.30;;;;;;5029342;28;20029;-76
2020/12/01 13:44:02;;;;;;;;;;;1.60;79.50;;;;;;5048341;28;20029;-76
2020/12/01 13:46:27;;;;;;;50.70;27.75;;;1.60;79.60;;;;;;5029783;28;19908;-76
2020/12/01 13:48:53;;;;;;;;;;;1.60;80.50;;;;;;5030881;28;20035;-76
2020/12/01 13:51:18;;;;;;;53.75;28.35;;;1.60;80.00;;;;;;5030211;28;19909;-78
2020/12/01 13:53:44;;;;;;;;;;;1.60;79.70;;;;;;5030428;28;20124;-77
2020/12/01 13:56:10;;;;;;;60.65;32.03;;;1.60;80.00;;;;;;5047299;28;19909;-76
2020/12/01 13:58:36;;;;;;;;;;;1.60;80.10;;;;;;5030155;28;20090;-77
2020/12/01 14:01:02;;;;;;;56.55;29.13;;;1.60;79.50;;;;;;5029994;28;20428;-77
2020/12/01 14:03:27;;;;;;;;;;;1.60;79.50;;;;;;5044668;28;20021;-74
2020/12/01 14:05:53;;;;;;;44.55;25.83;;;1.60;80.40;;;;;;5048407;28;19917;-76
2020/12/01 14:08:19;;;;;;;46.13;24.70;;;1.50;79.30;;;;;;5051545;28;20171;-76
2020/12/01 14:10:45;;;;;;;;;;;1.50;79.50;;;;;;5051086;28;20469;-77
2020/12/01 14:13:11;;;;;;;54.67;27.77;;;1.50;79.60;;;;;;5050199;28;19912;-75
2020/12/01 14:15:36;;;;;;;;;;;1.50;79.70;;;;;;5050059;28;20804;-75
2020/12/01 14:18:04;;;;;;;57.63;26.50;;;1.40;79.40;;;;;;5050548;28;20312;-76
2020/12/01 14:20:30;;;;;;;45.13;24.23;;;1.40;79.10;;;;;;5050838;28;20131;-76
2020/12/01 14:22:55;;;;;;;;;;;1.40;79.50;;;;;;5033748;28;20127;-76
2020/12/01 14:25:21;;;;;;;51.88;26.77;;;1.40;79.30;;;;;;5032029;28;19939;-75
2020/12/01 14:27:47;;;;;;;;;;;1.40;79.40;;;;;;5051203;28;20552;-75
2020/12/01 14:30:17;;;;;;;48.97;25.38;;;1.40;79.30;;;;;;5033219;28;19959;-76
2020/12/01 14:32:42;;;;;;;52.45;27.85;;;1.30;79.40;;;;;;5031797;28;20062;-75
2020/12/01 14:35:09;;;;;;;;;;;1.30;79.50;;;;;;5032430;28;20049;-77
2020/12/01 14:37:35;;;;;;;64.25;34.33;;;1.30;80.30;;;;;;5050584;28;19908;-77
2020/12/01 14:40:02;;;;;;;;;;;1.30;80.50;;;;;;5050565;28;20399;-77
2020/12/01 14:42:27;;;;;;;62.78;31.92;;;1.30;80.60;;;;;;5050612;28;19908;-76
2020/12/01 14:44:53;;;;;;;;;;;1.30;80.70;;;;;;5051181;28;20102;-77
2020/12/01 14:47:44;;;;;;;68.93;37.10;;;1.20;80.90;;;;;;5033913;28;20001;-76
2020/12/01 14:50:25;;;;;;;67.85;36.08;;;1.10;81.40;;;;;;5035322;28;20567;-75
2020/12/01 14:53:04;;;;;;;59.30;28.63;;;1.10;81.50;;;;;;5028346;28;20029;-77
2020/12/01 14:55:53;;;;;;;58.53;28.40;;;1.00;81.50;;;;;;5053428;28;20047;-76
2020/12/01 14:58:41;;;;;;;57.63;30.30;;;0.90;81.70;;;;;;5055965;28;20404;-77
2020/12/01 15:01:36;;;;;;;55.38;28.42;;;0.90;82.00;;;;;;5049946;28;20293;-77
2020/12/01 15:04:26;;;;;;;63.25;30.63;;;0.90;81.90;;;;;;5049490;28;20580;-77
2020/12/01 15:07:15;;;;;;;68.55;35.88;;;0.90;81.90;;;;;;5048349;28;20033;-76
2020/12/01 15:09:57;;;;;;;86.88;40.92;;;0.80;82.30;;;;;;5049019;28;20442;-77
2020/12/01 15:12:38;;;;;;;89.10;43.15;;;0.80;83.00;;;;;;5049423;28;20033;-77
2020/12/01 15:15:27;;;;;;;102.22;50.20;;;0.60;83.60;;;;;;5049118;28;20127;-76
2020/12/01 15:17:59;;;;;;;92.95;44.97;;;0.50;84.10;;;;;;5049807;28;20028;-75
2020/12/01 15:20:27;;;;;;;79.35;38.80;;;0.50;85.00;;;;;;5045114;28;20510;-76
2020/12/01 15:23:28;;;;;;;70.85;35.30;;;0.40;85.40;;;;;;5029745;28;20025;-77
2020/12/01 15:25:55;;;;;;;68.88;35.13;;;0.40;85.50;;;;;;5029854;28;20039;-76
2020/12/01 15:28:29;;;;;;;68.57;35.45;;;0.30;85.20;;;;;;5030108;28;20459;-76
2020/12/01 15:30:55;;;;;;;71.65;35.40;;;0.20;85.70;;;;;;5030005;28;20029;-78
2020/12/01 15:33:22;;;;;;;;;;;0.20;86.60;;;;;;5030917;28;20029;-77
2020/12/01 15:35:51;;;;;;;62.80;31.33;;;0.20;86.20;;;;;;5046658;28;19916;-77
2020/12/01 15:38:22;;;;;;;65.85;33.22;;;0.10;86.40;;;;;;5044675;28;20786;-76
2020/12/01 15:40:50;;;;;;;61.70;31.10;;;0.00;86.20;;;;;;5044982;28;20033;-77
2020/12/01 15:43:24;;;;;;;55.88;27.27;;;0.00;86.30;;;;;;5044802;28;20075;-76
2020/12/01 15:45:50;;;;;;;62.08;31.20;;;0.00;86.20;;;;;;5029161;28;20022;-76
2020/12/01 15:48:20;;;;;;;61.47;32.10;;;-0.20;86.10;;;;;;5044872;28;20017;-77